sensor_id;sensor_type;location;lat;lon;timestamp;P1;durP1;ratioP1;P2;durP2;ratioP2
20727;SDS011;10525;50.154;8.198;2022-09-20T00:00:34;6.20;;;2.67;;
20727;SDS011;10525;50.154;8.198;2022-09-20T00:03:01;8.07;;;2.95;;
20727;SDS011;10525;50.154;8.198;2022-09-20T00:05:28;8.93;;;3.17;;
20727;SDS011;10525;50.154;8.198;2022-09-20T00:07:55;10.50;;;3.35;;
20727;SDS011;10525;50.154;8.198;2022-09-20T00:10:21;17.25;;;3.28;;
20727;SDS011;10525;50.154;8.198;2022-09-20T00:12:48;8.57;;;3.30;;
20727;SDS011;10525;50.154;8.198;2022-09-20T00:15:15;18.00;;;3.45;;
20727;SDS011;10525;50.154;8.198;2022-09-20T00:17:43;13.13;;;3.47;;
20727;SDS011;10525;50.154;8.198;2022-09-20T00:20:09;12.00;;;3.97;;
20727;SDS011;10525;50.154;8.198;2022-09-20T00:22:36;6.07;;;3.60;;
20727;SDS011;10525;50.154;8.198;2022-09-20T00:25:03;7.00;;;3.53;;
20727;SDS011;10525;50.154;8.198;2022-09-20T00:27:30;9.40;;;4.05;;
20727;SDS011;10525;50.154;8.198;2022-09-20T00:29:57;9.48;;;3.35;;
20727;SDS011;10525;50.154;8.198;2022-09-20T00:32:24;6.38;;;3.90;;
20727;SDS011;10525;50.154;8.198;2022-09-20T00:34:52;7.57;;;4.03;;
20727;SDS011;10525;50.154;8.198;2022-09-20T00:37:35;17.45;;;3.78;;
20727;SDS011;10525;50.154;8.198;2022-09-20T00:40:03;8.70;;;4.13;;
20727;SDS011;10525;50.154;8.198;2022-09-20T00:42:31;11.93;;;3.83;;
20727;SDS011;10525;50.154;8.198;2022-09-20T00:44:58;16.92;;;4.40;;
20727;SDS011;10525;50.154;8.198;2022-09-20T00:47:29;20.90;;;4.82;;
20727;SDS011;10525;50.154;8.198;2022-09-20T00:50:04;10.75;;;3.80;;
20727;SDS011;10525;50.154;8.198;2022-09-20T00:52:42;12.15;;;4.72;;
20727;SDS011;10525;50.154;8.198;2022-09-20T00:55:11;9.82;;;3.97;;
20727;SDS011;10525;50.154;8.198;2022-09-20T00:57:40;17.95;;;4.78;;
20727;SDS011;10525;50.154;8.198;2022-09-20T01:00:08;12.95;;;4.78;;
20727;SDS011;10525;50.154;8.198;2022-09-20T01:02:38;12.23;;;4.57;;
20727;SDS011;10525;50.154;8.198;2022-09-20T01:05:08;13.02;;;5.35;;
20727;SDS011;10525;50.154;8.198;2022-09-20T01:07:37;19.95;;;4.95;;
20727;SDS011;10525;50.154;8.198;2022-09-20T01:10:04;18.60;;;5.18;;
20727;SDS011;10525;50.154;8.198;2022-09-20T01:12:32;9.23;;;4.75;;
20727;SDS011;10525;50.154;8.198;2022-09-20T01:14:59;12.05;;;4.78;;
20727;SDS011;10525;50.154;8.198;2022-09-20T01:17:29;21.38;;;5.15;;
20727;SDS011;10525;50.154;8.198;2022-09-20T01:20:06;10.32;;;4.88;;
20727;SDS011;10525;50.154;8.198;2022-09-20T01:22:40;11.88;;;5.00;;
20727;SDS011;10525;50.154;8.198;2022-09-20T01:25:46;10.88;;;4.57;;
20727;SDS011;10525;50.154;8.198;2022-09-20T01:28:24;8.52;;;4.20;;
20727;SDS011;10525;50.154;8.198;2022-09-20T01:30:54;12.70;;;4.38;;
20727;SDS011;10525;50.154;8.198;2022-09-20T01:33:27;19.92;;;5.38;;
20727;SDS011;10525;50.154;8.198;2022-09-20T01:36:00;8.18;;;4.50;;
20727;SDS011;10525;50.154;8.198;2022-09-20T01:38:33;10.25;;;4.13;;
20727;SDS011;10525;50.154;8.198;2022-09-20T01:41:07;14.20;;;5.03;;
20727;SDS011;10525;50.154;8.198;2022-09-20T01:43:39;20.40;;;4.78;;
20727;SDS011;10525;50.154;8.198;2022-09-20T01:46:17;16.15;;;5.40;;
20727;SDS011;10525;50.154;8.198;2022-09-20T01:48:52;8.48;;;4.55;;
20727;SDS011;10525;50.154;8.198;2022-09-20T01:51:33;12.30;;;5.15;;
20727;SDS011;10525;50.154;8.198;2022-09-20T02:04:14;11.45;;;4.85;;
20727;SDS011;10525;50.154;8.198;2022-09-20T02:07:06;13.00;;;4.97;;
20727;SDS011;10525;50.154;8.198;2022-09-20T02:09:48;11.02;;;5.32;;
20727;SDS011;10525;50.154;8.198;2022-09-20T02:12:50;7.30;;;4.57;;
20727;SDS011;10525;50.154;8.198;2022-09-20T02:15:28;16.98;;;5.22;;
20727;SDS011;10525;50.154;8.198;2022-09-20T02:18:08;15.75;;;5.03;;
20727;SDS011;10525;50.154;8.198;2022-09-20T02:20:48;17.80;;;5.57;;
20727;SDS011;10525;50.154;8.198;2022-09-20T02:23:21;16.85;;;5.50;;
20727;SDS011;10525;50.154;8.198;2022-09-20T02:26:02;15.00;;;4.70;;
20727;SDS011;10525;50.154;8.198;2022-09-20T02:28:43;18.30;;;5.38;;
20727;SDS011;10525;50.154;8.198;2022-09-20T02:31:22;13.35;;;5.40;;
20727;SDS011;10525;50.154;8.198;2022-09-20T02:34:17;20.75;;;5.85;;
20727;SDS011;10525;50.154;8.198;2022-09-20T02:37:00;20.30;;;6.30;;
20727;SDS011;10525;50.154;8.198;2022-09-20T02:39:42;18.02;;;6.53;;
20727;SDS011;10525;50.154;8.198;2022-09-20T02:42:16;13.52;;;6.90;;
20727;SDS011;10525;50.154;8.198;2022-09-20T02:44:51;20.90;;;7.60;;
20727;SDS011;10525;50.154;8.198;2022-09-20T02:47:27;23.00;;;8.23;;
20727;SDS011;10525;50.154;8.198;2022-09-20T02:50:02;22.75;;;7.80;;
20727;SDS011;10525;50.154;8.198;2022-09-20T02:52:48;18.13;;;7.57;;
20727;SDS011;10525;50.154;8.198;2022-09-20T02:55:25;24.77;;;9.45;;
20727;SDS011;10525;50.154;8.198;2022-09-20T02:58:00;19.77;;;7.65;;
20727;SDS011;10525;50.154;8.198;2022-09-20T03:00:38;19.17;;;8.05;;
20727;SDS011;10525;50.154;8.198;2022-09-20T03:03:12;20.23;;;7.40;;
20727;SDS011;10525;50.154;8.198;2022-09-20T03:05:49;25.25;;;8.50;;
20727;SDS011;10525;50.154;8.198;2022-09-20T03:08:30;18.52;;;8.57;;
20727;SDS011;10525;50.154;8.198;2022-09-20T03:11:03;24.00;;;8.55;;
20727;SDS011;10525;50.154;8.198;2022-09-20T03:13:45;30.70;;;8.30;;
20727;SDS011;10525;50.154;8.198;2022-09-20T03:16:25;25.10;;;7.75;;
20727;SDS011;10525;50.154;8.198;2022-09-20T03:18:59;21.75;;;8.75;;
20727;SDS011;10525;50.154;8.198;2022-09-20T03:21:39;22.83;;;8.20;;
20727;SDS011;10525;50.154;8.198;2022-09-20T03:24:20;23.35;;;9.18;;
20727;SDS011;10525;50.154;8.198;2022-09-20T03:26:54;23.85;;;8.98;;
20727;SDS011;10525;50.154;8.198;2022-09-20T03:29:33;27.17;;;8.18;;
20727;SDS011;10525;50.154;8.198;2022-09-20T03:32:17;22.10;;;8.75;;
20727;SDS011;10525;50.154;8.198;2022-09-20T03:34:56;22.88;;;9.23;;
20727;SDS011;10525;50.154;8.198;2022-09-20T03:40:40;25.70;;;9.73;;
20727;SDS011;10525;50.154;8.198;2022-09-20T03:43:24;27.55;;;9.05;;
20727;SDS011;10525;50.154;8.198;2022-09-20T03:46:02;21.40;;;10.18;;
20727;SDS011;10525;50.154;8.198;2022-09-20T03:48:49;25.58;;;9.45;;
20727;SDS011;10525;50.154;8.198;2022-09-20T03:51:33;33.83;;;10.25;;
20727;SDS011;10525;50.154;8.198;2022-09-20T03:54:22;32.97;;;11.05;;
20727;SDS011;10525;50.154;8.198;2022-09-20T03:57:33;23.95;;;10.95;;
20727;SDS011;10525;50.154;8.198;2022-09-20T04:00:22;28.58;;;10.88;;
20727;SDS011;10525;50.154;8.198;2022-09-20T04:05:57;28.73;;;11.55;;
20727;SDS011;10525;50.154;8.198;2022-09-20T04:08:41;30.05;;;11.32;;
20727;SDS011;10525;50.154;8.198;2022-09-20T04:11:16;33.80;;;11.38;;
20727;SDS011;10525;50.154;8.198;2022-09-20T04:13:53;27.23;;;10.43;;
20727;SDS011;10525;50.154;8.198;2022-09-20T04:16:30;35.20;;;12.48;;
20727;SDS011;10525;50.154;8.198;2022-09-20T04:19:08;33.25;;;11.00;;
20727;SDS011;10525;50.154;8.198;2022-09-20T04:21:42;41.70;;;11.60;;
20727;SDS011;10525;50.154;8.198;2022-09-20T04:24:15;29.83;;;10.60;;
20727;SDS011;10525;50.154;8.198;2022-09-20T04:26:48;30.23;;;11.48;;
20727;SDS011;10525;50.154;8.198;2022-09-20T04:29:24;25.80;;;9.65;;
20727;SDS011;10525;50.154;8.198;2022-09-20T04:31:58;24.38;;;10.15;;
20727;SDS011;10525;50.154;8.198;2022-09-20T04:34:33;38.50;;;10.68;;
20727;SDS011;10525;50.154;8.198;2022-09-20T04:37:24;35.47;;;11.05;;
20727;SDS011;10525;50.154;8.198;2022-09-20T04:39:58;35.25;;;10.77;;
20727;SDS011;10525;50.154;8.198;2022-09-20T04:42:37;34.72;;;11.23;;
20727;SDS011;10525;50.154;8.198;2022-09-20T04:45:30;29.38;;;11.50;;
20727;SDS011;10525;50.154;8.198;2022-09-20T04:54:35;31.08;;;11.95;;
20727;SDS011;10525;50.154;8.198;2022-09-20T04:57:29;32.55;;;12.40;;
20727;SDS011;10525;50.154;8.198;2022-09-20T05:00:15;34.85;;;12.27;;
20727;SDS011;10525;50.154;8.198;2022-09-20T05:03:01;28.80;;;11.55;;
20727;SDS011;10525;50.154;8.198;2022-09-20T05:05:47;33.13;;;12.02;;
20727;SDS011;10525;50.154;8.198;2022-09-20T05:08:44;31.27;;;12.13;;
20727;SDS011;10525;50.154;8.198;2022-09-20T05:11:43;23.75;;;12.13;;
20727;SDS011;10525;50.154;8.198;2022-09-20T05:14:37;31.65;;;12.32;;
20727;SDS011;10525;50.154;8.198;2022-09-20T05:17:35;36.03;;;12.25;;
20727;SDS011;10525;50.154;8.198;2022-09-20T05:20:21;29.92;;;13.18;;
20727;SDS011;10525;50.154;8.198;2022-09-20T05:26:16;27.27;;;11.75;;
20727;SDS011;10525;50.154;8.198;2022-09-20T05:28:53;35.05;;;13.70;;
20727;SDS011;10525;50.154;8.198;2022-09-20T05:31:27;37.83;;;12.75;;
20727;SDS011;10525;50.154;8.198;2022-09-20T05:34:03;35.35;;;12.85;;
20727;SDS011;10525;50.154;8.198;2022-09-20T05:36:41;36.08;;;12.60;;
20727;SDS011;10525;50.154;8.198;2022-09-20T05:39:21;36.70;;;13.93;;
20727;SDS011;10525;50.154;8.198;2022-09-20T05:41:57;31.00;;;13.25;;
20727;SDS011;10525;50.154;8.198;2022-09-20T05:44:36;31.63;;;12.85;;
20727;SDS011;10525;50.154;8.198;2022-09-20T05:47:16;34.83;;;12.88;;
20727;SDS011;10525;50.154;8.198;2022-09-20T05:49:49;25.40;;;12.38;;
20727;SDS011;10525;50.154;8.198;2022-09-20T05:52:37;47.60;;;14.00;;
20727;SDS011;10525;50.154;8.198;2022-09-20T05:55:35;32.72;;;14.10;;
20727;SDS011;10525;50.154;8.198;2022-09-20T05:58:22;28.73;;;12.00;;
20727;SDS011;10525;50.154;8.198;2022-09-20T06:01:08;31.70;;;12.65;;
20727;SDS011;10525;50.154;8.198;2022-09-20T06:03:40;32.15;;;12.52;;
20727;SDS011;10525;50.154;8.198;2022-09-20T06:06:11;31.05;;;12.88;;
20727;SDS011;10525;50.154;8.198;2022-09-20T06:08:50;29.38;;;13.18;;
20727;SDS011;10525;50.154;8.198;2022-09-20T06:11:37;32.67;;;12.20;;
20727;SDS011;10525;50.154;8.198;2022-09-20T06:14:13;31.35;;;13.07;;
20727;SDS011;10525;50.154;8.198;2022-09-20T06:16:47;27.58;;;12.95;;
20727;SDS011;10525;50.154;8.198;2022-09-20T06:19:24;33.55;;;12.48;;
20727;SDS011;10525;50.154;8.198;2022-09-20T06:22:00;28.42;;;12.55;;
20727;SDS011;10525;50.154;8.198;2022-09-20T06:24:34;23.55;;;12.07;;
20727;SDS011;10525;50.154;8.198;2022-09-20T06:27:05;27.17;;;12.02;;
20727;SDS011;10525;50.154;8.198;2022-09-20T06:29:38;26.30;;;11.55;;
20727;SDS011;10525;50.154;8.198;2022-09-20T06:32:09;33.15;;;12.77;;
20727;SDS011;10525;50.154;8.198;2022-09-20T06:34:36;33.25;;;13.02;;
20727;SDS011;10525;50.154;8.198;2022-09-20T06:37:08;31.38;;;11.65;;
20727;SDS011;10525;50.154;8.198;2022-09-20T06:40:05;31.48;;;13.07;;
20727;SDS011;10525;50.154;8.198;2022-09-20T06:42:59;37.50;;;12.93;;
20727;SDS011;10525;50.154;8.198;2022-09-20T06:45:27;30.40;;;12.73;;
20727;SDS011;10525;50.154;8.198;2022-09-20T06:47:56;26.02;;;12.05;;
20727;SDS011;10525;50.154;8.198;2022-09-20T06:50:24;28.42;;;10.98;;
20727;SDS011;10525;50.154;8.198;2022-09-20T06:52:51;22.55;;;10.23;;
20727;SDS011;10525;50.154;8.198;2022-09-20T06:55:21;26.15;;;10.68;;
20727;SDS011;10525;50.154;8.198;2022-09-20T06:57:54;24.77;;;9.73;;
20727;SDS011;10525;50.154;8.198;2022-09-20T07:00:21;17.75;;;9.50;;
20727;SDS011;10525;50.154;8.198;2022-09-20T07:02:47;21.52;;;9.43;;
20727;SDS011;10525;50.154;8.198;2022-09-20T07:05:14;28.80;;;8.88;;
20727;SDS011;10525;50.154;8.198;2022-09-20T07:07:42;23.05;;;8.57;;
20727;SDS011;10525;50.154;8.198;2022-09-20T07:10:09;20.88;;;7.95;;
20727;SDS011;10525;50.154;8.198;2022-09-20T07:12:37;28.15;;;9.05;;
20727;SDS011;10525;50.154;8.198;2022-09-20T07:15:04;21.50;;;9.02;;
20727;SDS011;10525;50.154;8.198;2022-09-20T07:17:31;13.93;;;7.30;;
20727;SDS011;10525;50.154;8.198;2022-09-20T07:19:58;9.50;;;7.30;;
20727;SDS011;10525;50.154;8.198;2022-09-20T07:22:25;13.32;;;6.97;;
20727;SDS011;10525;50.154;8.198;2022-09-20T07:24:52;15.02;;;6.80;;
20727;SDS011;10525;50.154;8.198;2022-09-20T07:27:19;14.25;;;7.30;;
20727;SDS011;10525;50.154;8.198;2022-09-20T07:29:47;11.50;;;6.65;;
20727;SDS011;10525;50.154;8.198;2022-09-20T07:32:14;17.88;;;7.85;;
20727;SDS011;10525;50.154;8.198;2022-09-20T07:34:41;17.67;;;7.72;;
20727;SDS011;10525;50.154;8.198;2022-09-20T07:37:08;19.15;;;10.00;;
20727;SDS011;10525;50.154;8.198;2022-09-20T07:39:35;19.48;;;8.15;;
20727;SDS011;10525;50.154;8.198;2022-09-20T07:42:02;14.02;;;7.78;;
20727;SDS011;10525;50.154;8.198;2022-09-20T07:44:30;17.65;;;7.68;;
20727;SDS011;10525;50.154;8.198;2022-09-20T07:46:58;16.00;;;8.02;;
20727;SDS011;10525;50.154;8.198;2022-09-20T07:49:26;11.02;;;6.35;;
20727;SDS011;10525;50.154;8.198;2022-09-20T07:51:54;8.93;;;5.72;;
20727;SDS011;10525;50.154;8.198;2022-09-20T07:54:21;11.40;;;6.32;;
20727;SDS011;10525;50.154;8.198;2022-09-20T07:56:48;8.43;;;6.07;;
20727;SDS011;10525;50.154;8.198;2022-09-20T07:59:15;15.50;;;6.45;;
20727;SDS011;10525;50.154;8.198;2022-09-20T08:01:42;14.27;;;6.65;;
20727;SDS011;10525;50.154;8.198;2022-09-20T08:04:10;12.52;;;5.55;;
20727;SDS011;10525;50.154;8.198;2022-09-20T08:06:37;11.15;;;5.80;;
20727;SDS011;10525;50.154;8.198;2022-09-20T08:09:06;8.00;;;5.18;;
20727;SDS011;10525;50.154;8.198;2022-09-20T08:11:33;7.85;;;5.15;;
20727;SDS011;10525;50.154;8.198;2022-09-20T08:14:02;7.90;;;4.63;;
20727;SDS011;10525;50.154;8.198;2022-09-20T08:16:29;5.85;;;4.70;;
20727;SDS011;10525;50.154;8.198;2022-09-20T08:18:57;7.82;;;4.10;;
20727;SDS011;10525;50.154;8.198;2022-09-20T08:21:27;14.57;;;4.45;;
20727;SDS011;10525;50.154;8.198;2022-09-20T08:23:56;8.32;;;4.32;;
20727;SDS011;10525;50.154;8.198;2022-09-20T08:26:23;18.25;;;5.20;;
20727;SDS011;10525;50.154;8.198;2022-09-20T08:28:51;7.93;;;3.63;;
20727;SDS011;10525;50.154;8.198;2022-09-20T08:31:20;9.25;;;4.13;;
20727;SDS011;10525;50.154;8.198;2022-09-20T08:33:49;3.95;;;3.50;;
20727;SDS011;10525;50.154;8.198;2022-09-20T08:36:17;8.05;;;3.97;;
20727;SDS011;10525;50.154;8.198;2022-09-20T08:38:47;4.22;;;3.83;;
20727;SDS011;10525;50.154;8.198;2022-09-20T08:41:14;7.95;;;3.60;;
20727;SDS011;10525;50.154;8.198;2022-09-20T08:43:47;7.32;;;3.50;;
20727;SDS011;10525;50.154;8.198;2022-09-20T08:46:17;3.95;;;3.65;;
20727;SDS011;10525;50.154;8.198;2022-09-20T08:48:49;9.27;;;4.00;;
20727;SDS011;10525;50.154;8.198;2022-09-20T08:51:17;11.55;;;3.67;;
20727;SDS011;10525;50.154;8.198;2022-09-20T08:53:46;5.60;;;3.60;;
20727;SDS011;10525;50.154;8.198;2022-09-20T08:56:16;5.95;;;3.85;;
20727;SDS011;10525;50.154;8.198;2022-09-20T08:58:43;6.35;;;4.18;;
20727;SDS011;10525;50.154;8.198;2022-09-20T09:01:10;6.55;;;3.40;;
20727;SDS011;10525;50.154;8.198;2022-09-20T09:03:43;8.32;;;3.88;;
20727;SDS011;10525;50.154;8.198;2022-09-20T09:06:10;8.45;;;3.63;;
20727;SDS011;10525;50.154;8.198;2022-09-20T09:08:39;9.77;;;3.65;;
20727;SDS011;10525;50.154;8.198;2022-09-20T09:11:11;11.52;;;4.13;;
20727;SDS011;10525;50.154;8.198;2022-09-20T09:13:41;7.15;;;3.63;;
20727;SDS011;10525;50.154;8.198;2022-09-20T09:16:14;7.93;;;3.50;;
20727;SDS011;10525;50.154;8.198;2022-09-20T09:18:44;8.27;;;5.30;;
20727;SDS011;10525;50.154;8.198;2022-09-20T09:21:16;10.05;;;5.20;;
20727;SDS011;10525;50.154;8.198;2022-09-20T09:23:44;14.93;;;5.47;;
20727;SDS011;10525;50.154;8.198;2022-09-20T09:26:18;6.18;;;3.97;;
20727;SDS011;10525;50.154;8.198;2022-09-20T09:28:46;6.18;;;3.25;;
20727;SDS011;10525;50.154;8.198;2022-09-20T09:31:39;6.07;;;3.83;;
20727;SDS011;10525;50.154;8.198;2022-09-20T09:34:20;10.45;;;3.75;;
20727;SDS011;10525;50.154;8.198;2022-09-20T09:36:51;8.43;;;4.00;;
20727;SDS011;10525;50.154;8.198;2022-09-20T09:39:21;11.80;;;4.28;;
20727;SDS011;10525;50.154;8.198;2022-09-20T09:41:51;4.43;;;3.78;;
20727;SDS011;10525;50.154;8.198;2022-09-20T09:44:19;10.32;;;3.92;;
20727;SDS011;10525;50.154;8.198;2022-09-20T09:46:48;5.47;;;3.70;;
20727;SDS011;10525;50.154;8.198;2022-09-20T09:49:18;5.13;;;3.58;;
20727;SDS011;10525;50.154;8.198;2022-09-20T09:51:59;6.57;;;3.25;;
20727;SDS011;10525;50.154;8.198;2022-09-20T09:54:33;6.15;;;4.03;;
20727;SDS011;10525;50.154;8.198;2022-09-20T09:59:59;13.27;;;4.70;;
20727;SDS011;10525;50.154;8.198;2022-09-20T10:02:38;11.98;;;4.07;;
20727;SDS011;10525;50.154;8.198;2022-09-20T10:05:26;8.63;;;4.22;;
20727;SDS011;10525;50.154;8.198;2022-09-20T10:07:58;8.48;;;3.38;;
20727;SDS011;10525;50.154;8.198;2022-09-20T10:10:36;4.07;;;3.35;;
20727;SDS011;10525;50.154;8.198;2022-09-20T10:13:13;4.57;;;3.42;;
20727;SDS011;10525;50.154;8.198;2022-09-20T10:15:48;7.28;;;3.30;;
20727;SDS011;10525;50.154;8.198;2022-09-20T10:21:16;6.45;;;3.17;;
20727;SDS011;10525;50.154;8.198;2022-09-20T10:23:52;4.47;;;3.00;;
20727;SDS011;10525;50.154;8.198;2022-09-20T10:29:19;2.78;;;2.58;;
20727;SDS011;10525;50.154;8.198;2022-09-20T10:31:59;7.28;;;3.80;;
20727;SDS011;10525;50.154;8.198;2022-09-20T10:34:46;5.25;;;3.22;;
20727;SDS011;10525;50.154;8.198;2022-09-20T10:37:23;3.90;;;2.33;;
20727;SDS011;10525;50.154;8.198;2022-09-20T10:40:00;2.08;;;1.98;;
20727;SDS011;10525;50.154;8.198;2022-09-20T10:42:37;6.38;;;2.00;;
20727;SDS011;10525;50.154;8.198;2022-09-20T10:45:31;3.35;;;1.92;;
20727;SDS011;10525;50.154;8.198;2022-09-20T10:48:04;2.63;;;1.50;;
20727;SDS011;10525;50.154;8.198;2022-09-20T10:50:35;3.22;;;2.30;;
20727;SDS011;10525;50.154;8.198;2022-09-20T10:53:17;1.70;;;1.60;;
20727;SDS011;10525;50.154;8.198;2022-09-20T10:55:53;2.90;;;1.55;;
20727;SDS011;10525;50.154;8.198;2022-09-20T10:58:31;3.03;;;1.77;;
20727;SDS011;10525;50.154;8.198;2022-09-20T11:01:15;1.88;;;1.77;;
20727;SDS011;10525;50.154;8.198;2022-09-20T11:03:52;2.70;;;1.60;;
20727;SDS011;10525;50.154;8.198;2022-09-20T11:06:33;1.60;;;1.50;;
20727;SDS011;10525;50.154;8.198;2022-09-20T11:09:09;1.83;;;1.70;;
20727;SDS011;10525;50.154;8.198;2022-09-20T11:11:41;2.63;;;1.65;;
20727;SDS011;10525;50.154;8.198;2022-09-20T11:14:12;1.92;;;1.50;;
20727;SDS011;10525;50.154;8.198;2022-09-20T11:16:45;2.55;;;1.30;;
20727;SDS011;10525;50.154;8.198;2022-09-20T11:19:16;1.52;;;1.42;;
20727;SDS011;10525;50.154;8.198;2022-09-20T11:21:51;3.53;;;1.90;;
20727;SDS011;10525;50.154;8.198;2022-09-20T11:24:25;3.03;;;1.83;;
20727;SDS011;10525;50.154;8.198;2022-09-20T11:26:57;1.98;;;1.88;;
20727;SDS011;10525;50.154;8.198;2022-09-20T11:29:28;2.03;;;1.92;;
20727;SDS011;10525;50.154;8.198;2022-09-20T11:32:01;6.70;;;2.28;;
20727;SDS011;10525;50.154;8.198;2022-09-20T11:34:36;2.00;;;1.90;;
20727;SDS011;10525;50.154;8.198;2022-09-20T11:37:10;4.25;;;1.98;;
20727;SDS011;10525;50.154;8.198;2022-09-20T11:39:38;2.90;;;1.80;;
20727;SDS011;10525;50.154;8.198;2022-09-20T11:42:09;7.00;;;2.80;;
20727;SDS011;10525;50.154;8.198;2022-09-20T11:44:40;2.55;;;1.80;;
20727;SDS011;10525;50.154;8.198;2022-09-20T11:47:10;6.43;;;2.22;;
20727;SDS011;10525;50.154;8.198;2022-09-20T11:49:45;3.42;;;2.17;;
20727;SDS011;10525;50.154;8.198;2022-09-20T11:52:28;2.22;;;2.03;;
20727;SDS011;10525;50.154;8.198;2022-09-20T11:55:19;6.40;;;2.55;;
20727;SDS011;10525;50.154;8.198;2022-09-20T11:58:07;5.78;;;2.58;;
20727;SDS011;10525;50.154;8.198;2022-09-20T12:00:36;7.78;;;2.30;;
20727;SDS011;10525;50.154;8.198;2022-09-20T12:03:08;3.40;;;2.13;;
20727;SDS011;10525;50.154;8.198;2022-09-20T12:05:54;3.92;;;2.50;;
20727;SDS011;10525;50.154;8.198;2022-09-20T12:08:24;3.33;;;2.50;;
20727;SDS011;10525;50.154;8.198;2022-09-20T12:10:54;2.92;;;2.63;;
20727;SDS011;10525;50.154;8.198;2022-09-20T12:13:24;2.55;;;2.42;;
20727;SDS011;10525;50.154;8.198;2022-09-20T12:15:56;7.65;;;2.53;;
20727;SDS011;10525;50.154;8.198;2022-09-20T12:21:28;2.10;;;2.00;;
20727;SDS011;10525;50.154;8.198;2022-09-20T12:23:59;1.70;;;1.60;;
20727;SDS011;10525;50.154;8.198;2022-09-20T12:26:37;2.00;;;1.90;;
20727;SDS011;10525;50.154;8.198;2022-09-20T12:32:28;2.05;;;1.60;;
20727;SDS011;10525;50.154;8.198;2022-09-20T12:38:25;1.90;;;1.75;;
20727;SDS011;10525;50.154;8.198;2022-09-20T12:40:59;1.90;;;1.80;;
20727;SDS011;10525;50.154;8.198;2022-09-20T12:43:28;5.93;;;2.08;;
20727;SDS011;10525;50.154;8.198;2022-09-20T12:45:57;2.97;;;1.80;;
20727;SDS011;10525;50.154;8.198;2022-09-20T12:48:25;1.88;;;1.77;;
20727;SDS011;10525;50.154;8.198;2022-09-20T12:51:02;2.08;;;1.95;;
20727;SDS011;10525;50.154;8.198;2022-09-20T12:54:00;2.53;;;1.83;;
20727;SDS011;10525;50.154;8.198;2022-09-20T12:56:30;3.28;;;2.80;;
20727;SDS011;10525;50.154;8.198;2022-09-20T12:59:00;3.03;;;2.08;;
20727;SDS011;10525;50.154;8.198;2022-09-20T13:01:32;5.38;;;2.10;;
20727;SDS011;10525;50.154;8.198;2022-09-20T13:10:12;3.33;;;1.60;;
20727;SDS011;10525;50.154;8.198;2022-09-20T13:12:50;2.17;;;1.60;;
20727;SDS011;10525;50.154;8.198;2022-09-20T13:15:19;3.38;;;1.90;;
20727;SDS011;10525;50.154;8.198;2022-09-20T13:17:47;8.00;;;2.33;;
20727;SDS011;10525;50.154;8.198;2022-09-20T13:20:18;3.22;;;2.00;;
20727;SDS011;10525;50.154;8.198;2022-09-20T13:22:48;1.30;;;1.20;;
20727;SDS011;10525;50.154;8.198;2022-09-20T13:25:18;8.07;;;1.67;;
20727;SDS011;10525;50.154;8.198;2022-09-20T13:27:49;1.33;;;1.27;;
20727;SDS011;10525;50.154;8.198;2022-09-20T13:30:22;2.15;;;1.42;;
20727;SDS011;10525;50.154;8.198;2022-09-20T13:32:50;1.30;;;1.30;;
20727;SDS011;10525;50.154;8.198;2022-09-20T13:35:18;1.42;;;1.35;;
20727;SDS011;10525;50.154;8.198;2022-09-20T13:37:49;1.20;;;1.20;;
20727;SDS011;10525;50.154;8.198;2022-09-20T13:40:20;2.97;;;2.45;;
20727;SDS011;10525;50.154;8.198;2022-09-20T13:42:49;1.27;;;1.20;;
20727;SDS011;10525;50.154;8.198;2022-09-20T13:45:18;1.45;;;1.30;;
20727;SDS011;10525;50.154;8.198;2022-09-20T13:47:47;1.33;;;1.33;;
20727;SDS011;10525;50.154;8.198;2022-09-20T13:50:17;1.50;;;1.38;;
20727;SDS011;10525;50.154;8.198;2022-09-20T13:52:47;1.30;;;1.30;;
20727;SDS011;10525;50.154;8.198;2022-09-20T13:55:27;1.13;;;1.13;;
20727;SDS011;10525;50.154;8.198;2022-09-20T13:57:56;3.60;;;1.58;;
20727;SDS011;10525;50.154;8.198;2022-09-20T14:00:27;1.50;;;1.40;;
20727;SDS011;10525;50.154;8.198;2022-09-20T14:02:54;2.30;;;2.15;;
20727;SDS011;10525;50.154;8.198;2022-09-20T14:05:24;1.50;;;1.50;;
20727;SDS011;10525;50.154;8.198;2022-09-20T14:07:53;1.80;;;1.63;;
20727;SDS011;10525;50.154;8.198;2022-09-20T14:10:25;2.42;;;1.80;;
20727;SDS011;10525;50.154;8.198;2022-09-20T14:12:56;4.78;;;1.40;;
20727;SDS011;10525;50.154;8.198;2022-09-20T14:15:24;1.98;;;1.30;;
20727;SDS011;10525;50.154;8.198;2022-09-20T14:17:53;3.20;;;1.20;;
20727;SDS011;10525;50.154;8.198;2022-09-20T14:20:20;5.10;;;1.30;;
20727;SDS011;10525;50.154;8.198;2022-09-20T14:22:48;2.38;;;1.20;;
20727;SDS011;10525;50.154;8.198;2022-09-20T14:25:18;2.10;;;1.20;;
20727;SDS011;10525;50.154;8.198;2022-09-20T14:27:47;1.23;;;1.20;;
20727;SDS011;10525;50.154;8.198;2022-09-20T14:30:29;1.10;;;1.10;;
20727;SDS011;10525;50.154;8.198;2022-09-20T14:32:57;3.85;;;1.20;;
20727;SDS011;10525;50.154;8.198;2022-09-20T14:35:24;1.08;;;1.00;;
20727;SDS011;10525;50.154;8.198;2022-09-20T14:37:52;0.95;;;0.95;;
20727;SDS011;10525;50.154;8.198;2022-09-20T14:40:22;0.80;;;0.80;;
20727;SDS011;10525;50.154;8.198;2022-09-20T14:42:55;0.90;;;0.90;;
20727;SDS011;10525;50.154;8.198;2022-09-20T14:45:25;3.15;;;1.17;;
20727;SDS011;10525;50.154;8.198;2022-09-20T14:47:58;0.90;;;0.80;;
20727;SDS011;10525;50.154;8.198;2022-09-20T14:50:28;0.85;;;0.85;;
20727;SDS011;10525;50.154;8.198;2022-09-20T14:53:04;1.48;;;0.80;;
20727;SDS011;10525;50.154;8.198;2022-09-20T14:56:00;1.48;;;1.00;;
20727;SDS011;10525;50.154;8.198;2022-09-20T15:01:52;1.83;;;0.90;;
20727;SDS011;10525;50.154;8.198;2022-09-20T15:04:22;1.17;;;1.17;;
20727;SDS011;10525;50.154;8.198;2022-09-20T15:06:50;2.10;;;1.23;;
20727;SDS011;10525;50.154;8.198;2022-09-20T15:09:18;1.75;;;1.13;;
20727;SDS011;10525;50.154;8.198;2022-09-20T15:11:46;1.38;;;0.90;;
20727;SDS011;10525;50.154;8.198;2022-09-20T15:14:25;1.25;;;1.23;;
20727;SDS011;10525;50.154;8.198;2022-09-20T15:16:51;2.78;;;1.08;;
20727;SDS011;10525;50.154;8.198;2022-09-20T15:19:18;3.28;;;1.38;;
20727;SDS011;10525;50.154;8.198;2022-09-20T15:21:45;1.00;;;1.00;;
20727;SDS011;10525;50.154;8.198;2022-09-20T15:24:11;2.25;;;1.20;;
20727;SDS011;10525;50.154;8.198;2022-09-20T15:26:38;4.85;;;1.33;;
20727;SDS011;10525;50.154;8.198;2022-09-20T15:29:05;2.67;;;1.45;;
20727;SDS011;10525;50.154;8.198;2022-09-20T15:31:34;2.17;;;1.27;;
20727;SDS011;10525;50.154;8.198;2022-09-20T15:34:01;1.88;;;1.05;;
20727;SDS011;10525;50.154;8.198;2022-09-20T15:36:30;2.10;;;1.30;;
20727;SDS011;10525;50.154;8.198;2022-09-20T15:38:57;3.55;;;1.20;;
20727;SDS011;10525;50.154;8.198;2022-09-20T15:41:24;1.25;;;1.25;;
20727;SDS011;10525;50.154;8.198;2022-09-20T15:43:52;2.67;;;1.50;;
20727;SDS011;10525;50.154;8.198;2022-09-20T15:46:19;2.33;;;1.20;;
20727;SDS011;10525;50.154;8.198;2022-09-20T15:48:48;2.95;;;1.30;;
20727;SDS011;10525;50.154;8.198;2022-09-20T15:51:15;3.65;;;1.58;;
20727;SDS011;10525;50.154;8.198;2022-09-20T15:53:42;1.48;;;1.30;;
20727;SDS011;10525;50.154;8.198;2022-09-20T15:56:13;2.95;;;1.60;;
20727;SDS011;10525;50.154;8.198;2022-09-20T15:58:45;3.40;;;1.20;;
20727;SDS011;10525;50.154;8.198;2022-09-20T16:01:13;1.50;;;1.23;;
20727;SDS011;10525;50.154;8.198;2022-09-20T16:03:40;6.40;;;1.75;;
20727;SDS011;10525;50.154;8.198;2022-09-20T16:06:09;2.72;;;1.80;;
20727;SDS011;10525;50.154;8.198;2022-09-20T16:08:37;2.88;;;1.50;;
20727;SDS011;10525;50.154;8.198;2022-09-20T16:11:05;5.25;;;1.67;;